Time;durP1;ratioP1;P1;durP2;ratioP2;P2;SDS_P1;SDS_P2;PMS_P1;PMS_P2;Temp;Humidity;BMP_temperature;BMP_pressure;BME280_temperature;BME280_humidity;BME280_pressure;Samples;Min_cycle;Max_cycle;Signal;HPM_P1;HPM_P2
2021/08/09 00:00:20;;;;;;;3.53;0.93;;;14.90;99.90;;;;;;5052836;28;20501;-86
2021/08/09 00:02:48;;;;;;;3.22;1.05;;;14.90;99.90;;;;;;5053238;28;20021;-86
2021/08/09 00:05:19;;;;;;;3.50;0.77;;;14.80;99.90;;;;;;5049898;28;20051;-86
2021/08/09 00:07:59;;;;;;;5.17;0.70;;;14.90;99.90;;;;;;5044945;28;20028;-86
2021/08/09 00:10:27;;;;;;;3.33;0.82;;;14.80;99.90;;;;;;5053885;28;20116;-86
2021/08/09 00:12:59;;;;;;;4.38;1.00;;;14.80;99.90;;;;;;5044423;28;20075;-86
2021/08/09 00:15:25;;;;;;;;;;;14.80;99.90;;;;;;5067192;28;20442;-86
2021/08/09 00:17:53;;;;;;;3.92;0.77;;;14.70;99.90;;;;;;5059695;28;19905;-86
2021/08/09 00:20:24;;;;;;;5.97;1.15;;;14.70;99.90;;;;;;5060959;28;20021;-86
2021/08/09 00:22:56;;;;;;;3.00;0.77;;;14.70;99.90;;;;;;5042054;28;20018;-86
2021/08/09 00:25:24;;;;;;;2.55;0.90;;;14.80;99.90;;;;;;5066200;28;20041;-86
2021/08/09 00:27:54;;;;;;;3.45;0.90;;;14.80;99.90;;;;;;5064473;28;20025;-86
2021/08/09 00:30:20;;;;;;;2.88;0.73;;;14.70;99.90;;;;;;5063557;28;20090;-86
2021/08/09 00:32:56;;;;;;;2.53;0.90;;;14.80;99.90;;;;;;5061910;28;20331;-86
2021/08/09 00:35:25;;;;;;;2.20;0.77;;;14.70;99.90;;;;;;5064319;28;20198;-86
2021/08/09 00:37:55;;;;;;;1.73;0.80;;;14.70;99.90;;;;;;5060702;28;20610;-86
2021/08/09 00:40:30;;;;;;;6.15;1.00;;;14.60;99.90;;;;;;5061990;28;20029;-86
2021/08/09 00:42:56;;;;;;;2.65;0.63;;;14.50;99.90;;;;;;5066019;28;20048;-86
2021/08/09 00:45:24;;;;;;;2.10;0.73;;;14.50;99.90;;;;;;5065110;28;20041;-86
2021/08/09 00:47:55;;;;;;;2.45;0.90;;;14.50;99.90;;;;;;5064542;28;20031;-85
2021/08/09 00:50:20;;;;;;;3.42;0.77;;;14.50;99.90;;;;;;5026717;23;20054;-81
2021/08/09 00:52:46;;;;;;;3.75;1.05;;;14.50;99.90;;;;;;5000033;28;20383;-82
2021/08/09 00:55:12;;;;;;;6.88;1.08;;;14.40;99.90;;;;;;5011070;28;20045;-81
2021/08/09 00:57:38;;;;;;;5.32;1.60;;;14.50;99.90;;;;;;5010351;28;20102;-82
2021/08/09 01:00:05;;;;;;;6.15;1.30;;;14.40;99.90;;;;;;4994115;28;20030;-82
2021/08/09 01:02:31;;;;;;;3.53;1.00;;;14.40;99.90;;;;;;5002740;28;20026;-81
2021/08/09 01:05:04;;;;;;;3.20;1.02;;;14.40;99.90;;;;;;5002606;28;20045;-79
2021/08/09 01:07:42;;;;;;;4.13;1.17;;;14.30;99.90;;;;;;5006209;28;20032;-81
2021/08/09 01:10:18;;;;;;;3.45;1.08;;;14.30;99.90;;;;;;5003721;28;20113;-82
2021/08/09 01:12:55;;;;;;;4.90;1.00;;;14.30;99.90;;;;;;5010660;28;20050;-81
2021/08/09 01:15:28;;;;;;;5.32;1.17;;;14.30;99.90;;;;;;5022685;28;20026;-81
2021/08/09 01:17:57;;;;;;;4.38;1.30;;;14.20;99.90;;;;;;5014721;28;20030;-81
2021/08/09 01:20:50;;;;;;;4.97;1.20;;;14.20;99.90;;;;;;5000670;28;20033;-82
2021/08/09 01:23:45;;;;;;;6.47;1.33;;;14.20;99.90;;;;;;5029742;28;20026;-81
2021/08/09 01:26:40;;;;;;;2.53;1.00;;;14.20;99.90;;;;;;5006918;28;20030;-80
2021/08/09 01:29:09;;;;;;;4.20;0.93;;;14.10;99.90;;;;;;5000870;28;20066;-80
2021/08/09 01:31:44;;;;;;;3.78;1.10;;;14.10;99.90;;;;;;4999291;28;20613;-82
2021/08/09 01:34:11;;;;;;;2.22;0.90;;;14.10;99.90;;;;;;5006874;28;20057;-82
2021/08/09 01:36:40;;;;;;;3.10;1.02;;;14.00;99.90;;;;;;5010811;28;20406;-82
2021/08/09 01:39:07;;;;;;;3.22;1.02;;;13.90;99.90;;;;;;5010444;28;20022;-82
2021/08/09 01:41:33;;;;;;;3.03;0.90;;;14.00;99.90;;;;;;5016422;28;20026;-82
2021/08/09 01:43:59;;;;;;;3.45;0.90;;;14.00;99.90;;;;;;5016164;28;20505;-82
2021/08/09 01:46:25;;;;;;;3.60;0.80;;;13.90;99.90;;;;;;5009201;28;20030;-81
2021/08/09 01:48:51;;;;;;;2.72;0.90;;;13.90;99.90;;;;;;4995178;28;20045;-81
2021/08/09 01:51:17;;;;;;;4.03;0.90;;;13.90;99.90;;;;;;5025793;28;20076;-81
2021/08/09 01:53:43;;;;;;;3.53;1.00;;;13.90;99.90;;;;;;5016406;28;20029;-81
2021/08/09 01:56:10;;;;;;;2.30;0.90;;;13.90;99.90;;;;;;5003000;28;20398;-80
2021/08/09 01:58:36;;;;;;;3.10;0.90;;;13.90;99.90;;;;;;5003763;28;20065;-81
2021/08/09 02:01:04;;;;;;;2.78;1.10;;;13.80;99.90;;;;;;5016688;28;20026;-82
2021/08/09 02:03:30;;;;;;;4.57;0.98;;;13.80;99.90;;;;;;5008065;28;20041;-82
2021/08/09 02:05:56;;;;;;;3.35;1.10;;;13.80;99.90;;;;;;4996873;28;20043;-81
2021/08/09 02:08:22;;;;;;;3.22;1.10;;;13.80;99.90;;;;;;4995460;28;20395;-81
2021/08/09 02:10:57;;;;;;;5.57;1.27;;;13.80;99.90;;;;;;5011774;28;20034;-82
2021/08/09 02:13:40;;;;;;;2.13;0.88;;;13.70;99.90;;;;;;4996770;28;20038;-80
2021/08/09 02:16:10;;;;;;;2.30;0.90;;;13.70;99.90;;;;;;5003353;28;20034;-81
2021/08/09 02:18:45;;;;;;;3.45;1.00;;;13.70;99.90;;;;;;5030979;28;20038;-81
2021/08/09 02:21:14;;;;;;;2.65;0.93;;;13.70;99.90;;;;;;5023870;28;20086;-82
2021/08/09 02:23:55;;;;;;;3.97;1.08;;;13.80;99.90;;;;;;5031226;28;20125;-81
2021/08/09 02:26:29;;;;;;;2.17;0.93;;;13.70;99.90;;;;;;4995269;28;20861;-82
2021/08/09 02:29:03;;;;;;;3.40;0.90;;;13.70;99.90;;;;;;4996205;28;20113;-81
2021/08/09 02:31:30;;;;;;;3.35;0.95;;;13.80;99.90;;;;;;4994988;28;20125;-81
2021/08/09 02:33:57;;;;;;;2.97;1.20;;;13.70;99.90;;;;;;4996988;28;20109;-81
2021/08/09 02:36:22;;;;;;;2.35;1.00;;;13.70;99.90;;;;;;4995841;28;20034;-82
2021/08/09 02:38:48;;;;;;;4.22;1.10;;;13.70;99.90;;;;;;4994763;28;20106;-81
2021/08/09 02:41:15;;;;;;;3.70;0.98;;;13.80;99.90;;;;;;4995649;28;20031;-80
2021/08/09 02:43:41;;;;;;;2.33;0.90;;;13.70;99.90;;;;;;4996281;28;20030;-82
2021/08/09 02:46:07;;;;;;;5.93;0.82;;;13.70;99.90;;;;;;4999786;28;20169;-80
2021/08/09 02:48:34;;;;;;;3.72;1.08;;;13.70;99.90;;;;;;5006272;28;20032;-82
2021/08/09 02:51:00;;;;;;;2.55;1.00;;;13.70;99.90;;;;;;4996458;28;20102;-81
2021/08/09 02:53:26;;;;;;;2.10;0.80;;;13.70;99.90;;;;;;5009284;28;20049;-81
2021/08/09 02:55:55;;;;;;;5.55;0.95;;;13.70;99.90;;;;;;5014463;28;20040;-82
2021/08/09 02:58:21;;;;;;;2.60;0.60;;;13.60;99.90;;;;;;5010816;28;20022;-82
2021/08/09 03:00:48;;;;;;;2.17;0.80;;;13.70;99.90;;;;;;5029033;28;20068;-82
2021/08/09 03:03:18;;;;;;;3.42;0.93;;;13.60;99.90;;;;;;5017115;28;20064;-80
2021/08/09 03:05:44;;;;;;;2.45;0.95;;;13.60;99.90;;;;;;5003368;28;20031;-81
2021/08/09 03:08:13;;;;;;;4.07;1.00;;;13.60;99.90;;;;;;4996695;28;20067;-82
2021/08/09 03:10:40;;;;;;;2.80;0.80;;;13.50;99.90;;;;;;4995652;28;20027;-82
2021/08/09 03:13:08;;;;;;;3.03;0.90;;;13.50;99.90;;;;;;4996305;28;20065;-80
2021/08/09 03:15:35;;;;;;;2.72;0.95;;;13.50;99.90;;;;;;4995846;28;20030;-82
2021/08/09 03:18:02;;;;;;;3.63;0.90;;;13.40;99.90;;;;;;4995579;28;20026;-81
2021/08/09 03:20:29;;;;;;;2.70;0.90;;;13.50;99.90;;;;;;5011472;28;20022;-82
2021/08/09 03:22:54;;;;;;;2.97;0.95;;;13.40;99.90;;;;;;4999615;28;20120;-80
2021/08/09 03:25:20;;;;;;;2.80;0.90;;;13.40;99.90;;;;;;5009842;28;20415;-82
2021/08/09 03:27:46;;;;;;;2.17;0.70;;;13.40;99.90;;;;;;4996086;28;20053;-81
2021/08/09 03:30:12;;;;;;;4.72;0.90;;;13.40;99.90;;;;;;5012571;28;20080;-82
2021/08/09 03:32:37;;;;;;;3.28;1.02;;;13.40;99.90;;;;;;5007556;28;20049;-81
2021/08/09 03:35:03;;;;;;;2.55;0.82;;;13.40;99.90;;;;;;5005600;28;20053;-82
2021/08/09 03:37:29;;;;;;;3.22;0.80;;;13.40;99.90;;;;;;5025504;28;20099;-81
2021/08/09 03:39:54;;;;;;;5.20;1.10;;;13.30;99.90;;;;;;5013473;28;20029;-81
2021/08/09 03:42:20;;;;;;;2.67;0.80;;;13.30;99.90;;;;;;5007275;28;20555;-82
2021/08/09 03:44:46;;;;;;;1.50;0.57;;;13.30;99.90;;;;;;5029457;28;20026;-82
2021/08/09 03:47:12;;;;;;;3.28;0.80;;;13.40;99.90;;;;;;5014106;28;20040;-81
2021/08/09 03:49:38;;;;;;;2.40;0.90;;;13.30;99.90;;;;;;5010202;28;20553;-81
2021/08/09 03:52:03;;;;;;;1.92;0.80;;;13.30;99.90;;;;;;5010238;28;20109;-80
2021/08/09 03:54:29;;;;;;;4.90;1.20;;;13.30;99.90;;;;;;4995380;28;20553;-82
2021/08/09 03:56:55;;;;;;;2.15;0.85;;;13.30;99.90;;;;;;4995547;28;20499;-81
2021/08/09 03:59:20;;;;;;;3.40;1.17;;;13.30;99.90;;;;;;5015177;28;20061;-82
2021/08/09 04:01:48;;;;;;;2.97;0.70;;;13.30;99.90;;;;;;4996351;28;20109;-81
2021/08/09 04:04:13;;;;;;;3.28;0.95;;;13.30;99.90;;;;;;4994808;28;20030;-81
2021/08/09 04:06:39;;;;;;;4.50;0.85;;;13.30;99.90;;;;;;4993835;28;20030;-81
2021/08/09 04:09:07;;;;;;;3.78;1.15;;;13.30;99.90;;;;;;4993936;28;20034;-82
2021/08/09 04:11:32;;;;;;;5.20;1.45;;;13.30;99.90;;;;;;4997889;28;20116;-80
2021/08/09 04:13:58;;;;;;;5.25;1.00;;;13.30;99.90;;;;;;5005305;28;20490;-82
2021/08/09 04:16:24;;;;;;;3.05;1.33;;;13.30;99.90;;;;;;5010432;28;20029;-81
2021/08/09 04:18:50;;;;;;;5.13;0.90;;;13.20;99.90;;;;;;5010895;28;20101;-81
2021/08/09 04:21:16;;;;;;;4.15;1.17;;;13.20;99.90;;;;;;5001566;28;20129;-82
2021/08/09 04:23:41;;;;;;;4.18;1.20;;;13.10;99.90;;;;;;4993302;28;20027;-81
2021/08/09 04:26:07;;;;;;;3.85;1.20;;;12.90;99.90;;;;;;5026011;28;20084;-81
2021/08/09 04:28:33;;;;;;;3.22;1.17;;;12.90;99.90;;;;;;5012634;28;20087;-81
2021/08/09 04:30:58;;;;;;;5.60;1.40;;;12.70;99.90;;;;;;5012044;28;20030;-79
2021/08/09 04:33:24;;;;;;;3.58;1.38;;;12.70;99.90;;;;;;5011200;28;20026;-81
2021/08/09 04:35:50;;;;;;;3.10;1.50;;;12.70;99.90;;;;;;5003878;28;20038;-82
2021/08/09 04:38:15;;;;;;;4.88;1.30;;;12.80;99.90;;;;;;4991927;28;20030;-82
2021/08/09 04:40:41;;;;;;;4.70;1.40;;;12.70;99.90;;;;;;5008726;28;20057;-82
2021/08/09 04:43:07;;;;;;;2.35;1.20;;;12.70;99.90;;;;;;5023703;28;20018;-81
2021/08/09 04:45:32;;;;;;;7.70;1.55;;;12.70;99.90;;;;;;5029883;28;20037;-81
2021/08/09 04:47:58;;;;;;;6.55;1.50;;;12.70;99.90;;;;;;5006914;28;20029;-82
2021/08/09 04:50:24;;;;;;;3.67;1.30;;;12.70;99.90;;;;;;4992839;28;20446;-82
2021/08/09 04:52:49;;;;;;;5.78;2.05;;;12.80;99.90;;;;;;5008733;28;20458;-81
2021/08/09 04:55:15;;;;;;;5.70;1.60;;;12.90;99.90;;;;;;4994164;28;20375;-81
2021/08/09 04:57:41;;;;;;;5.00;1.80;;;13.00;99.90;;;;;;5012638;28;20101;-82
2021/08/09 05:00:07;;;;;;;6.18;1.65;;;13.00;99.90;;;;;;5012901;28;20647;-82
2021/08/09 05:02:36;;;;;;;3.40;1.67;;;13.10;99.90;;;;;;4997316;28;20030;-80
2021/08/09 05:05:02;;;;;;;6.65;1.70;;;13.20;99.90;;;;;;4997233;28;20102;-82
2021/08/09 05:07:28;;;;;;;4.28;1.20;;;13.20;99.90;;;;;;4997482;28;20145;-82
2021/08/09 05:09:53;;;;;;;3.38;1.30;;;13.30;99.90;;;;;;5008287;28;20503;-81
2021/08/09 05:12:19;;;;;;;4.78;1.40;;;13.30;99.90;;;;;;5001464;28;20053;-82
2021/08/09 05:14:44;;;;;;;3.78;1.67;;;13.30;99.90;;;;;;5016683;28;20030;-82
2021/08/09 05:17:10;;;;;;;3.72;1.55;;;13.30;99.90;;;;;;5012335;28;20030;-81
2021/08/09 05:19:36;;;;;;;3.63;1.85;;;13.30;99.90;;;;;;4997133;28;20030;-82
2021/08/09 05:22:03;;;;;;;4.20;1.35;;;13.40;99.90;;;;;;4996429;28;20026;-82
2021/08/09 05:24:29;;;;;;;3.38;1.20;;;13.50;99.90;;;;;;5013949;28;20022;-81
2021/08/09 05:26:56;;;;;;;4.47;1.20;;;13.60;99.90;;;;;;4995692;28;20117;-82
2021/08/09 05:29:22;;;;;;;3.08;1.27;;;13.60;99.90;;;;;;4995269;28;20053;-82
2021/08/09 05:31:48;;;;;;;3.38;1.30;;;13.60;99.90;;;;;;4995908;28;20093;-80
2021/08/09 05:34:13;;;;;;;4.95;1.48;;;13.70;99.90;;;;;;4995277;28;20242;-82
2021/08/09 05:36:39;;;;;;;3.33;1.20;;;13.80;99.90;;;;;;5002640;28;20030;-82
2021/08/09 05:39:05;;;;;;;3.10;1.08;;;13.80;99.90;;;;;;5010332;28;20422;-80
2021/08/09 05:41:33;;;;;;;3.78;1.20;;;13.80;99.90;;;;;;5014200;28;20080;-80
2021/08/09 05:43:58;;;;;;;3.22;1.00;;;13.90;99.90;;;;;;5006361;28;20456;-80
2021/08/09 05:46:24;;;;;;;2.88;0.93;;;14.10;99.90;;;;;;5008261;28;20076;-79
2021/08/09 05:48:50;;;;;;;6.97;1.25;;;14.20;99.90;;;;;;5005622;28;20438;-81
2021/08/09 05:51:16;;;;;;;3.55;1.10;;;14.40;99.90;;;;;;5005068;28;20049;-82
2021/08/09 05:53:41;;;;;;;2.83;1.10;;;14.30;99.90;;;;;;5010253;28;20041;-82
2021/08/09 05:56:07;;;;;;;4.25;1.30;;;14.30;99.90;;;;;;5009933;28;20455;-79
2021/08/09 05:58:32;;;;;;;4.07;1.10;;;14.40;99.90;;;;;;5011235;28;20026;-82
2021/08/09 06:00:58;;;;;;;4.75;1.20;;;14.50;99.90;;;;;;5024133;28;20033;-82
2021/08/09 06:03:24;;;;;;;2.67;1.00;;;14.70;99.90;;;;;;5010562;28;20145;-82
2021/08/09 06:05:52;;;;;;;3.78;1.20;;;14.70;99.90;;;;;;5026418;28;20076;-80
2021/08/09 06:08:18;;;;;;;3.08;0.93;;;14.90;99.90;;;;;;5011113;28;20072;-81
2021/08/09 06:10:44;;;;;;;8.85;2.55;;;14.80;99.90;;;;;;5002165;28;20023;-81
2021/08/09 06:13:09;;;;;;;7.85;1.40;;;14.70;99.90;;;;;;5003571;28;20344;-80
2021/08/09 06:15:35;;;;;;;6.40;1.50;;;14.80;99.90;;;;;;5011711;28;20095;-80
2021/08/09 06:18:01;;;;;;;4.05;1.23;;;14.90;99.90;;;;;;5010194;28;20171;-80
2021/08/09 06:20:26;;;;;;;3.38;1.20;;;15.00;99.90;;;;;;5012645;28;20057;-79
2021/08/09 06:22:52;;;;;;;3.83;0.82;;;15.10;99.90;;;;;;5009817;28;20134;-80
2021/08/09 06:25:18;;;;;;;5.65;1.08;;;15.20;99.90;;;;;;5010065;28;20022;-81
2021/08/09 06:27:44;;;;;;;3.47;0.82;;;15.20;99.90;;;;;;5012739;28;20026;-81
2021/08/09 06:30:11;;;;;;;8.65;1.15;;;15.20;99.90;;;;;;5008088;28;20084;-80
2021/08/09 06:32:36;;;;;;;5.65;0.88;;;15.20;99.90;;;;;;5011335;28;20068;-80
2021/08/09 06:35:03;;;;;;;4.13;1.05;;;15.30;99.90;;;;;;5012555;28;20449;-80
2021/08/09 06:37:28;;;;;;;4.53;1.15;;;15.20;99.90;;;;;;5012398;28;20543;-80
2021/08/09 06:39:54;;;;;;;4.13;0.95;;;15.30;99.90;;;;;;5020306;28;20120;-80
2021/08/09 06:42:20;;;;;;;8.43;2.33;;;15.50;99.90;;;;;;5002698;28;20040;-80
2021/08/09 06:44:45;;;;;;;4.70;1.10;;;15.50;99.90;;;;;;5002004;28;20023;-81
2021/08/09 06:47:11;;;;;;;4.53;1.00;;;15.70;99.90;;;;;;5002787;28;20146;-80
2021/08/09 06:49:37;;;;;;;7.43;0.95;;;15.60;99.90;;;;;;5006069;28;20494;-80
2021/08/09 06:52:03;;;;;;;5.05;1.00;;;15.70;99.90;;;;;;5010169;28;20030;-79
2021/08/09 06:54:29;;;;;;;4.95;0.90;;;15.90;99.90;;;;;;5049696;23;20055;-89
2021/08/09 06:56:54;;;;;;;3.42;0.85;;;16.00;99.90;;;;;;5049012;28;20021;-87
2021/08/09 06:59:20;;;;;;;7.68;1.08;;;16.20;99.90;;;;;;5033391;28;20188;-87
2021/08/09 07:01:46;;;;;;;4.03;0.90;;;16.30;99.90;;;;;;5039395;28;20458;-87
2021/08/09 07:04:11;;;;;;;3.80;1.10;;;16.40;99.90;;;;;;5030491;28;20024;-88
2021/08/09 07:06:37;;;;;;;3.55;0.98;;;16.50;99.90;;;;;;5005345;28;20021;-87
2021/08/09 07:09:04;;;;;;;4.40;0.90;;;16.50;99.90;;;;;;4999602;28;20462;-87
2021/08/09 07:11:30;;;;;;;2.20;0.90;;;16.40;99.90;;;;;;5007702;28;20033;-88
2021/08/09 07:13:57;;;;;;;4.45;0.88;;;16.60;99.90;;;;;;5025110;28;20040;-89
2021/08/09 07:16:25;;;;;;;3.38;0.90;;;16.80;99.90;;;;;;5009804;28;20037;-88
2021/08/09 07:18:54;;;;;;;4.75;0.75;;;17.00;99.90;;;;;;5005905;28;20109;-88
2021/08/09 07:21:20;;;;;;;3.63;1.00;;;17.20;99.90;;;;;;5021216;28;20049;-86
2021/08/09 07:23:46;;;;;;;8.48;0.95;;;17.40;99.90;;;;;;5000232;28;20049;-88
2021/08/09 07:26:11;;;;;;;3.25;0.85;;;17.50;99.90;;;;;;5023819;28;20556;-86
2021/08/09 07:28:37;;;;;;;4.57;0.70;;;17.70;99.90;;;;;;5003928;28;20045;-86
2021/08/09 07:31:03;;;;;;;3.58;0.90;;;17.90;99.90;;;;;;5020672;28;20706;-86
2021/08/09 07:33:29;;;;;;;5.20;0.80;;;18.10;99.90;;;;;;5020058;28;20029;-86
2021/08/09 07:35:55;;;;;;;3.05;0.70;;;18.10;99.90;;;;;;5004067;28;20405;-87
2021/08/09 07:38:20;;;;;;;4.00;0.90;;;18.10;99.90;;;;;;4997695;28;21162;-87
2021/08/09 07:40:46;;;;;;;2.47;0.60;;;18.00;99.90;;;;;;5005544;28;20057;-89
2021/08/09 07:43:12;;;;;;;4.18;0.77;;;18.20;99.90;;;;;;5003317;28;20045;-87
2021/08/09 07:45:38;;;;;;;4.43;0.80;;;18.40;99.90;;;;;;5001101;28;20038;-87
2021/08/09 07:48:04;;;;;;;3.70;0.75;;;18.50;99.90;;;;;;5003766;28;20029;-84
2021/08/09 07:50:30;;;;;;;3.08;0.85;;;18.70;99.90;;;;;;5023250;28;20044;-83
2021/08/09 07:52:56;;;;;;;2.75;0.57;;;18.70;99.90;;;;;;5025912;28;20036;-81
2021/08/09 07:55:22;;;;;;;3.08;0.73;;;19.00;99.90;;;;;;5024604;28;20029;-84
2021/08/09 07:57:48;;;;;;;5.68;0.93;;;19.10;99.90;;;;;;5017693;28;20092;-83
2021/08/09 08:00:17;;;;;;;3.20;0.60;;;19.30;99.90;;;;;;5026409;28;20025;-84
2021/08/09 08:02:43;;;;;;;3.58;0.50;;;19.40;99.90;;;;;;5008732;28;20487;-81
2021/08/09 08:05:09;;;;;;;6.10;0.70;;;19.50;99.90;;;;;;5008771;28;20036;-83
2021/08/09 08:07:35;;;;;;;1.85;0.57;;;19.70;99.90;;;;;;5005547;28;20040;-83
2021/08/09 08:10:02;;;;;;;1.02;0.47;;;19.50;99.90;;;;;;5026988;28;20022;-81
2021/08/09 08:12:31;;;;;;;5.78;0.60;;;19.60;99.90;;;;;;5029960;28;20030;-83
2021/08/09 08:14:56;;;;;;;4.15;0.80;;;19.60;99.90;;;;;;5016845;28;20504;-83
2021/08/09 08:17:23;;;;;;;4.55;0.65;;;19.70;99.90;;;;;;5033462;28;20025;-83
2021/08/09 08:19:49;;;;;;;3.17;0.70;;;20.00;99.90;;;;;;5031200;28;20029;-81
2021/08/09 08:22:15;;;;;;;4.07;0.77;;;20.10;99.90;;;;;;5031756;28;20058;-82
2021/08/09 08:24:41;;;;;;;2.80;0.65;;;20.10;99.90;;;;;;5016413;28;20405;-83
2021/08/09 08:27:07;;;;;;;1.13;0.47;;;20.10;99.90;;;;;;5017305;28;20025;-83
2021/08/09 08:29:32;;;;;;;4.10;0.63;;;20.20;99.90;;;;;;5033251;28;20127;-84
2021/08/09 08:31:58;;;;;;;2.58;0.55;;;20.30;99.90;;;;;;5017479;28;20068;-84
2021/08/09 08:34:23;;;;;;;2.97;0.45;;;20.50;99.90;;;;;;5015734;28;20028;-84
2021/08/09 08:36:49;;;;;;;5.50;0.50;;;20.60;99.90;;;;;;5036799;28;20033;-84
2021/08/09 08:39:15;;;;;;;2.58;0.50;;;20.80;99.90;;;;;;5038466;28;20036;-81
2021/08/09 08:41:44;;;;;;;1.48;0.50;;;20.80;99.90;;;;;;5017514;28;20025;-85
2021/08/09 08:44:16;;;;;;;3.10;0.40;;;21.00;99.90;;;;;;5021124;28;20588;-84
2021/08/09 08:46:42;;;;;;;;;;;21.20;99.90;;;;;;5019994;28;20048;-83
2021/08/09 08:49:13;;;;;;;3.70;0.52;;;21.20;99.90;;;;;;5020340;28;19951;-84
2021/08/09 08:51:41;;;;;;;;;;;21.40;99.90;;;;;;5037549;28;20171;-84
2021/08/09 08:54:06;;;;;;;1.52;0.40;;;21.30;99.90;;;;;;5036336;28;19920;-81
2021/08/09 08:56:36;;;;;;;2.60;0.50;;;21.40;99.90;;;;;;5036091;28;20033;-84
2021/08/09 08:59:05;;;;;;;1.50;0.30;;;21.50;99.90;;;;;;5019512;28;20037;-82
2021/08/09 09:01:42;;;;;;;3.08;0.50;;;21.30;99.90;;;;;;5018319;28;20040;-85
2021/08/09 09:04:35;;;;;;;1.80;0.40;;;21.10;99.80;;;;;;5038315;28;20065;-82
2021/08/09 09:07:08;;;;;;;3.90;0.60;;;20.90;99.80;;;;;;5020066;28;20507;-82
2021/08/09 09:09:39;;;;;;;2.83;0.50;;;21.10;99.90;;;;;;5021049;28;20469;-84
2021/08/09 09:12:17;;;;;;;2.85;0.60;;;21.30;99.90;;;;;;5036777;28;20025;-82
2021/08/09 09:14:43;;;;;;;3.60;0.40;;;21.50;99.90;;;;;;5038434;28;20030;-86
2021/08/09 09:17:09;;;;;;;2.17;0.40;;;21.90;99.90;;;;;;5019354;28;20018;-84
2021/08/09 09:19:35;;;;;;;2.35;0.50;;;22.20;99.90;;;;;;5016203;28;20456;-84
2021/08/09 09:22:06;;;;;;;4.13;0.47;;;22.40;99.70;;;;;;5005312;28;20237;-84
2021/08/09 09:24:33;;;;;;;3.22;0.50;;;22.60;99.30;;;;;;5009636;28;20088;-84
2021/08/09 09:27:02;;;;;;;2.00;0.40;;;22.50;97.10;;;;;;5015308;28;20056;-84
2021/08/09 09:29:34;;;;;;;3.53;0.55;;;22.50;97.50;;;;;;5020229;28;20025;-84
2021/08/09 09:32:13;;;;;;;1.90;0.40;;;21.80;96.90;;;;;;5032982;28;20066;-84
2021/08/09 09:34:55;;;;;;;2.33;0.47;;;22.00;97.80;;;;;;5034221;28;20033;-85
2021/08/09 09:37:24;;;;;;;3.28;0.50;;;22.40;98.00;;;;;;5017776;28;20033;-84
2021/08/09 09:39:49;;;;;;;2.75;0.52;;;22.30;97.70;;;;;;5032773;28;20045;-84
2021/08/09 09:42:15;;;;;;;2.80;0.40;;;22.20;96.30;;;;;;5015568;28;20075;-84
2021/08/09 09:44:42;;;;;;;2.47;0.40;;;22.10;96.30;;;;;;5034904;28;20055;-84
2021/08/09 09:47:27;;;;;;;1.77;0.50;;;22.00;96.40;;;;;;5031814;28;20037;-86
2021/08/09 09:50:00;;;;;;;4.03;0.85;;;21.80;97.00;;;;;;5010459;28;20100;-85
2021/08/09 09:52:40;;;;;;;2.85;0.40;;;21.90;97.10;;;;;;5027474;28;20022;-83
2021/08/09 09:55:12;;;;;;;1.33;0.30;;;22.20;96.60;;;;;;5007675;28;20060;-84
2021/08/09 09:57:39;;;;;;;2.40;0.30;;;22.40;96.10;;;;;;5010512;28;20489;-85
2021/08/09 10:00:11;;;;;;;1.23;0.30;;;22.20;95.80;;;;;;5004760;28;20032;-85
2021/08/09 10:02:41;;;;;;;1.92;0.45;;;22.40;96.40;;;;;;5026286;28;20112;-86
2021/08/09 10:05:08;;;;;;;1.93;0.47;;;22.40;95.50;;;;;;5028772;28;20507;-86
2021/08/09 10:07:38;;;;;;;2.03;0.40;;;22.70;95.40;;;;;;5033572;28;20260;-86
2021/08/09 10:10:05;;;;;;;1.40;0.38;;;22.80;95.00;;;;;;5036121;28;20052;-86
2021/08/09 10:12:33;;;;;;;2.40;0.40;;;22.80;95.00;;;;;;5033827;28;20547;-85
2021/08/09 10:14:59;;;;;;;1.80;0.32;;;23.00;94.00;;;;;;5009713;28;20112;-85
2021/08/09 10:17:27;;;;;;;1.75;0.47;;;23.10;95.60;;;;;;5012859;28;20448;-86
2021/08/09 10:20:03;;;;;;;1.95;0.50;;;23.40;95.10;;;;;;5006457;28;20025;-86
2021/08/09 10:22:29;;;;;;;0.68;0.30;;;23.40;93.50;;;;;;5006692;28;20436;-87
2021/08/09 10:24:56;;;;;;;1.77;0.50;;;23.70;94.30;;;;;;5013004;28;20018;-84
2021/08/09 10:27:48;;;;;;;1.75;0.60;;;23.60;93.70;;;;;;5039130;28;20093;-85
2021/08/09 10:30:18;;;;;;;1.95;0.38;;;23.30;94.00;;;;;;5003557;28;20034;-85
2021/08/09 10:32:50;;;;;;;1.47;0.40;;;23.30;94.10;;;;;;5026296;28;20494;-82
2021/08/09 10:35:34;;;;;;;2.03;0.47;;;23.20;94.10;;;;;;5028274;28;20084;-84
2021/08/09 10:38:20;;;;;;;3.10;0.40;;;22.90;93.90;;;;;;5024701;28;20029;-84
2021/08/09 10:41:09;;;;;;;1.63;0.43;;;23.20;94.10;;;;;;5005467;28;20108;-84
2021/08/09 10:43:41;;;;;;;1.65;0.35;;;23.50;94.30;;;;;;4972788;28;20030;-84
2021/08/09 10:46:41;;;;;;;2.50;0.52;;;23.40;95.00;;;;;;5020242;28;20410;-84
2021/08/09 10:49:08;;;;;;;1.45;0.40;;;22.90;93.20;;;;;;4978579;28;20037;-84
2021/08/09 10:51:52;;;;;;;2.78;0.65;;;23.10;94.70;;;;;;5006294;28;20089;-84
2021/08/09 10:54:35;;;;;;;2.20;0.40;;;23.20;94.60;;;;;;5009998;28;20033;-86
2021/08/09 10:57:01;;;;;;;0.98;0.40;;;23.10;93.10;;;;;;5024456;28;20549;-85
2021/08/09 10:59:42;;;;;;;1.90;0.40;;;23.40;93.60;;;;;;5003285;28;20791;-85
2021/08/09 11:02:18;;;;;;;2.92;0.40;;;23.90;93.10;;;;;;5024896;28;20048;-86
2021/08/09 11:05:04;;;;;;;1.80;0.50;;;23.90;93.40;;;;;;5006465;28;20036;-81
2021/08/09 11:07:29;;;;;;;4.03;0.60;;;24.30;92.70;;;;;;5018332;28;20053;-84
2021/08/09 11:09:55;;;;;;;3.55;0.50;;;24.30;93.00;;;;;;5014202;28;20025;-82
2021/08/09 11:12:25;;;;;;;3.20;0.77;;;24.60;92.50;;;;;;5034065;28;20432;-83
2021/08/09 11:15:00;;;;;;;1.77;0.40;;;24.70;91.50;;;;;;5034906;28;20013;-82
2021/08/09 11:17:27;;;;;;;2.90;0.65;;;24.80;91.20;;;;;;5019576;28;20272;-80
2021/08/09 11:20:11;;;;;;;2.78;0.50;;;25.20;91.00;;;;;;5012951;28;20027;-82
2021/08/09 11:22:38;;;;;;;3.28;0.50;;;25.00;91.00;;;;;;5014937;28;20080;-82
2021/08/09 11:25:30;;;;;;;1.92;0.50;;;25.00;90.30;;;;;;5025951;28;20077;-83
2021/08/09 11:28:11;;;;;;;3.10;0.63;;;25.10;90.70;;;;;;5026488;28;20018;-82
2021/08/09 11:30:40;;;;;;;2.78;0.60;;;25.00;90.30;;;;;;5013959;28;20908;-82
2021/08/09 11:33:16;;;;;;;3.30;0.60;;;24.90;91.00;;;;;;5023667;28;20026;-82
2021/08/09 11:35:47;;;;;;;2.92;0.55;;;25.30;90.80;;;;;;5011116;28;20117;-83
2021/08/09 11:38:13;;;;;;;3.13;0.40;;;25.50;90.30;;;;;;5013971;28;21682;-81
2021/08/09 11:40:41;;;;;;;2.00;0.50;;;25.40;89.40;;;;;;5026692;28;20045;-83
2021/08/09 11:43:08;;;;;;;2.85;0.60;;;25.50;90.10;;;;;;5017963;28;20486;-83
2021/08/09 11:45:34;;;;;;;2.20;0.43;;;25.90;90.40;;;;;;5011794;28;20034;-82
2021/08/09 11:48:00;;;;;;;4.25;0.63;;;25.70;89.60;;;;;;5010816;28;20081;-82
2021/08/09 11:50:26;;;;;;;2.15;0.40;;;25.30;90.60;;;;;;5012645;28;20029;-82
2021/08/09 11:52:52;;;;;;;2.50;0.63;;;25.00;89.80;;;;;;5012120;28;20064;-81
2021/08/09 11:55:22;;;;;;;4.20;0.70;;;24.70;89.50;;;;;;4995155;28;20049;-83
2021/08/09 11:57:48;;;;;;;2.63;0.65;;;24.60;90.20;;;;;;5012842;28;20478;-81
2021/08/09 12:00:14;;;;;;;2.38;0.60;;;24.30;90.50;;;;;;5013308;28;20061;-82
2021/08/09 12:03:13;;;;;;;1.30;0.40;;;24.40;90.30;;;;;;4997819;28;20049;-82
2021/08/09 12:05:39;;;;;;;2.67;0.65;;;24.40;91.00;;;;;;5031380;28;20037;-83
2021/08/09 12:08:06;;;;;;;2.47;0.57;;;24.60;90.50;;;;;;5008948;28;20045;-81
2021/08/09 12:10:33;;;;;;;2.10;0.40;;;24.30;88.10;;;;;;5034328;28;20029;-82
2021/08/09 12:13:00;;;;;;;1.65;0.57;;;24.40;88.70;;;;;;5018262;28;20092;-83
2021/08/09 12:15:25;;;;;;;1.92;0.35;;;24.50;90.00;;;;;;5036447;28;20148;-83
2021/08/09 12:18:05;;;;;;;2.65;0.50;;;24.40;88.70;;;;;;5027561;28;20053;-82
2021/08/09 12:20:31;;;;;;;5.78;0.80;;;24.90;88.80;;;;;;5001051;28;20014;-81
2021/08/09 12:22:56;;;;;;;7.40;0.95;;;25.60;85.10;;;;;;5022076;28;20037;-82
2021/08/09 12:25:37;;;;;;;1.52;0.50;;;25.90;85.40;;;;;;5023903;28;20072;-84
2021/08/09 12:28:04;;;;;;;5.13;0.50;;;25.60;82.20;;;;;;5024092;28;20029;-81
2021/08/09 12:30:48;;;;;;;2.47;0.60;;;25.10;86.00;;;;;;5029582;28;20018;-79
2021/08/09 12:33:13;;;;;;;1.10;0.30;;;25.00;84.50;;;;;;5023239;28;20109;-77
2021/08/09 12:35:40;;;;;;;1.48;0.43;;;24.70;84.40;;;;;;5015960;28;20822;-77
2021/08/09 12:38:11;;;;;;;4.88;0.45;;;24.50;86.50;;;;;;5030833;28;20030;-78
2021/08/09 12:40:38;;;;;;;3.92;0.70;;;24.30;86.30;;;;;;5008706;28;20055;-80
2021/08/09 12:43:12;;;;;;;2.92;0.60;;;24.40;86.90;;;;;;5024490;28;20022;-79
2021/08/09 12:45:39;;;;;;;4.00;0.60;;;24.30;89.00;;;;;;5011287;28;20060;-80
2021/08/09 12:48:06;;;;;;;3.03;0.50;;;24.80;86.00;;;;;;5009359;28;20390;-80
2021/08/09 12:50:34;;;;;;;2.85;0.52;;;25.20;86.70;;;;;;5029985;28;20018;-79
2021/08/09 12:53:00;;;;;;;1.58;0.52;;;25.50;84.40;;;;;;5031820;28;20028;-80
2021/08/09 12:55:26;;;;;;;3.95;0.60;;;25.20;82.90;;;;;;5031279;28;20101;-80